sensor_id;sensor_type;location;lat;lon;timestamp;P1;durP1;ratioP1;P2;durP2;ratioP2
75704;SDS011;64391;44.686;37.628;2022-11-13T00:00:54;131.90;;;121.75;;
75704;SDS011;64391;44.686;37.628;2022-11-13T00:02:14;118.95;;;109.57;;
75704;SDS011;64391;44.686;37.628;2022-11-13T00:03:34;119.25;;;109.97;;
75704;SDS011;64391;44.686;37.628;2022-11-13T00:04:53;127.85;;;117.93;;
75704;SDS011;64391;44.686;37.628;2022-11-13T00:06:14;135.50;;;125.25;;
75704;SDS011;64391;44.686;37.628;2022-11-13T00:07:35;126.75;;;117.20;;
75704;SDS011;64391;44.686;37.628;2022-11-13T00:08:55;141.23;;;130.70;;
75704;SDS011;64391;44.686;37.628;2022-11-13T00:10:15;135.23;;;124.97;;
75704;SDS011;64391;44.686;37.628;2022-11-13T00:11:35;129.27;;;119.45;;
75704;SDS011;64391;44.686;37.628;2022-11-13T00:12:55;134.20;;;124.25;;
75704;SDS011;64391;44.686;37.628;2022-11-13T00:14:15;141.15;;;130.55;;
75704;SDS011;64391;44.686;37.628;2022-11-13T00:15:34;136.10;;;125.63;;
75704;SDS011;64391;44.686;37.628;2022-11-13T00:16:54;129.98;;;120.13;;
75704;SDS011;64391;44.686;37.628;2022-11-13T00:18:14;129.88;;;120.03;;
75704;SDS011;64391;44.686;37.628;2022-11-13T00:19:34;124.03;;;114.55;;
75704;SDS011;64391;44.686;37.628;2022-11-13T00:20:57;133.02;;;123.00;;
75704;SDS011;64391;44.686;37.628;2022-11-13T00:22:36;129.13;;;119.30;;
75704;SDS011;64391;44.686;37.628;2022-11-13T00:23:56;132.63;;;122.55;;
75704;SDS011;64391;44.686;37.628;2022-11-13T00:25:16;113.95;;;105.10;;
75704;SDS011;64391;44.686;37.628;2022-11-13T00:26:36;118.13;;;108.88;;
75704;SDS011;64391;44.686;37.628;2022-11-13T00:27:57;134.63;;;124.57;;
75704;SDS011;64391;44.686;37.628;2022-11-13T00:29:17;135.70;;;125.45;;
75704;SDS011;64391;44.686;37.628;2022-11-13T00:30:37;124.38;;;114.88;;
75704;SDS011;64391;44.686;37.628;2022-11-13T00:31:57;127.70;;;118.00;;
75704;SDS011;64391;44.686;37.628;2022-11-13T00:33:16;124.78;;;115.25;;
75704;SDS011;64391;44.686;37.628;2022-11-13T00:34:37;110.47;;;101.93;;
75704;SDS011;64391;44.686;37.628;2022-11-13T00:36:16;116.53;;;107.88;;
75704;SDS011;64391;44.686;37.628;2022-11-13T00:37:41;115.75;;;107.05;;
75704;SDS011;64391;44.686;37.628;2022-11-13T00:39:00;117.57;;;108.60;;
75704;SDS011;64391;44.686;37.628;2022-11-13T00:40:20;112.57;;;104.03;;
75704;SDS011;64391;44.686;37.628;2022-11-13T00:41:40;116.43;;;107.68;;
75704;SDS011;64391;44.686;37.628;2022-11-13T00:43:00;133.98;;;123.70;;
75704;SDS011;64391;44.686;37.628;2022-11-13T00:44:20;116.40;;;107.60;;
75704;SDS011;64391;44.686;37.628;2022-11-13T00:45:40;121.10;;;112.00;;
75704;SDS011;64391;44.686;37.628;2022-11-13T00:47:00;113.03;;;104.38;;
75704;SDS011;64391;44.686;37.628;2022-11-13T00:48:19;113.18;;;104.68;;
75704;SDS011;64391;44.686;37.628;2022-11-13T00:49:40;107.07;;;98.97;;
75704;SDS011;64391;44.686;37.628;2022-11-13T00:51:00;108.68;;;100.45;;
75704;SDS011;64391;44.686;37.628;2022-11-13T00:52:20;125.38;;;115.85;;
75704;SDS011;64391;44.686;37.628;2022-11-13T00:53:40;132.55;;;122.63;;
75704;SDS011;64391;44.686;37.628;2022-11-13T00:55:00;122.45;;;113.43;;
75704;SDS011;64391;44.686;37.628;2022-11-13T00:56:20;129.88;;;120.10;;
75704;SDS011;64391;44.686;37.628;2022-11-13T00:57:40;133.90;;;123.82;;
75704;SDS011;64391;44.686;37.628;2022-11-13T00:58:59;165.52;;;153.68;;
75704;SDS011;64391;44.686;37.628;2022-11-13T01:00:19;160.13;;;148.05;;
75704;SDS011;64391;44.686;37.628;2022-11-13T01:01:39;181.88;;;168.85;;
75704;SDS011;64391;44.686;37.628;2022-11-13T01:02:59;168.50;;;156.30;;
75704;SDS011;64391;44.686;37.628;2022-11-13T01:04:19;176.30;;;163.40;;
75704;SDS011;64391;44.686;37.628;2022-11-13T01:05:40;171.30;;;158.65;;
75704;SDS011;64391;44.686;37.628;2022-11-13T01:07:01;161.52;;;149.48;;
75704;SDS011;64391;44.686;37.628;2022-11-13T01:08:21;178.30;;;165.02;;
75704;SDS011;64391;44.686;37.628;2022-11-13T01:09:41;168.90;;;156.40;;
75704;SDS011;64391;44.686;37.628;2022-11-13T01:11:06;199.57;;;185.30;;
75704;SDS011;64391;44.686;37.628;2022-11-13T01:12:30;202.50;;;187.60;;
75704;SDS011;64391;44.686;37.628;2022-11-13T01:13:51;175.27;;;162.18;;
75704;SDS011;64391;44.686;37.628;2022-11-13T01:15:12;213.95;;;198.23;;
75704;SDS011;64391;44.686;37.628;2022-11-13T01:16:32;199.27;;;184.75;;
75704;SDS011;64391;44.686;37.628;2022-11-13T01:17:52;174.70;;;161.75;;
75704;SDS011;64391;44.686;37.628;2022-11-13T01:19:13;175.85;;;163.02;;
75704;SDS011;64391;44.686;37.628;2022-11-13T01:20:33;155.75;;;144.30;;
75704;SDS011;64391;44.686;37.628;2022-11-13T01:21:53;174.32;;;161.52;;
75704;SDS011;64391;44.686;37.628;2022-11-13T01:23:13;154.32;;;142.65;;
75704;SDS011;64391;44.686;37.628;2022-11-13T01:24:32;160.02;;;148.23;;
75704;SDS011;64391;44.686;37.628;2022-11-13T01:25:52;150.82;;;139.40;;
75704;SDS011;64391;44.686;37.628;2022-11-13T01:27:12;162.07;;;150.27;;
75704;SDS011;64391;44.686;37.628;2022-11-13T01:28:34;160.50;;;148.55;;
75704;SDS011;64391;44.686;37.628;2022-11-13T01:29:54;169.43;;;156.95;;
75704;SDS011;64391;44.686;37.628;2022-11-13T01:31:15;175.82;;;162.77;;
75704;SDS011;64391;44.686;37.628;2022-11-13T01:32:37;183.88;;;170.38;;
75704;SDS011;64391;44.686;37.628;2022-11-13T01:33:57;203.00;;;187.93;;
75704;SDS011;64391;44.686;37.628;2022-11-13T01:35:17;217.52;;;200.93;;
75704;SDS011;64391;44.686;37.628;2022-11-13T01:36:37;201.13;;;186.23;;
75704;SDS011;64391;44.686;37.628;2022-11-13T01:37:57;248.77;;;230.32;;
75704;SDS011;64391;44.686;37.628;2022-11-13T01:39:17;231.65;;;214.23;;
75704;SDS011;64391;44.686;37.628;2022-11-13T01:40:43;199.70;;;184.93;;
75704;SDS011;64391;44.686;37.628;2022-11-13T01:42:04;179.00;;;165.82;;
75704;SDS011;64391;44.686;37.628;2022-11-13T01:43:31;182.15;;;168.48;;
75704;SDS011;64391;44.686;37.628;2022-11-13T01:44:54;225.43;;;209.05;;
75704;SDS011;64391;44.686;37.628;2022-11-13T01:46:22;214.95;;;199.07;;
75704;SDS011;64391;44.686;37.628;2022-11-13T01:47:46;191.35;;;177.23;;
75704;SDS011;64391;44.686;37.628;2022-11-13T01:50:29;220.82;;;204.55;;
75704;SDS011;64391;44.686;37.628;2022-11-13T01:54:36;200.02;;;185.30;;
75704;SDS011;64391;44.686;37.628;2022-11-13T01:56:02;233.07;;;216.20;;
75704;SDS011;64391;44.686;37.628;2022-11-13T01:57:22;226.93;;;210.48;;
75704;SDS011;64391;44.686;37.628;2022-11-13T01:58:44;229.95;;;213.15;;
75704;SDS011;64391;44.686;37.628;2022-11-13T02:00:09;231.43;;;214.57;;
75704;SDS011;64391;44.686;37.628;2022-11-13T02:01:30;259.02;;;240.38;;
75704;SDS011;64391;44.686;37.628;2022-11-13T02:02:50;242.73;;;224.93;;
75704;SDS011;64391;44.686;37.628;2022-11-13T02:04:10;248.90;;;230.52;;
75704;SDS011;64391;44.686;37.628;2022-11-13T02:05:30;253.50;;;234.57;;
75704;SDS011;64391;44.686;37.628;2022-11-13T02:06:55;249.57;;;231.25;;
75704;SDS011;64391;44.686;37.628;2022-11-13T02:08:18;250.95;;;232.75;;
75704;SDS011;64391;44.686;37.628;2022-11-13T02:09:39;236.73;;;219.23;;
75704;SDS011;64391;44.686;37.628;2022-11-13T02:11:01;240.13;;;222.70;;
75704;SDS011;64391;44.686;37.628;2022-11-13T02:12:27;240.52;;;223.07;;
75704;SDS011;64391;44.686;37.628;2022-11-13T02:13:53;225.93;;;209.48;;
75704;SDS011;64391;44.686;37.628;2022-11-13T02:15:13;249.68;;;231.60;;
75704;SDS011;64391;44.686;37.628;2022-11-13T02:16:35;263.08;;;243.85;;
75704;SDS011;64391;44.686;37.628;2022-11-13T02:17:57;259.45;;;240.35;;
75704;SDS011;64391;44.686;37.628;2022-11-13T02:19:21;248.55;;;230.32;;
75704;SDS011;64391;44.686;37.628;2022-11-13T02:25:35;221.25;;;205.10;;
75704;SDS011;64391;44.686;37.628;2022-11-13T02:28:19;244.13;;;226.02;;
75704;SDS011;64391;44.686;37.628;2022-11-13T02:29:39;239.20;;;221.70;;
75704;SDS011;64391;44.686;37.628;2022-11-13T02:31:05;224.43;;;207.95;;
75704;SDS011;64391;44.686;37.628;2022-11-13T02:32:28;235.48;;;218.68;;
75704;SDS011;64391;44.686;37.628;2022-11-13T02:33:48;191.68;;;177.23;;
75704;SDS011;64391;44.686;37.628;2022-11-13T02:35:08;215.13;;;199.43;;
75704;SDS011;64391;44.686;37.628;2022-11-13T02:36:29;200.15;;;185.23;;
75704;SDS011;64391;44.686;37.628;2022-11-13T02:37:48;195.85;;;181.23;;
75704;SDS011;64391;44.686;37.628;2022-11-13T02:39:10;180.88;;;167.20;;
75704;SDS011;64391;44.686;37.628;2022-11-13T02:40:31;185.50;;;171.68;;
75704;SDS011;64391;44.686;37.628;2022-11-13T02:41:51;178.50;;;164.98;;
75704;SDS011;64391;44.686;37.628;2022-11-13T02:43:11;178.45;;;164.95;;
75704;SDS011;64391;44.686;37.628;2022-11-13T02:44:31;189.00;;;174.80;;
75704;SDS011;64391;44.686;37.628;2022-11-13T02:45:51;204.40;;;189.27;;
75704;SDS011;64391;44.686;37.628;2022-11-13T02:47:11;193.57;;;179.05;;
75704;SDS011;64391;44.686;37.628;2022-11-13T02:48:31;190.95;;;177.02;;
75704;SDS011;64391;44.686;37.628;2022-11-13T02:49:50;192.45;;;178.02;;
75704;SDS011;64391;44.686;37.628;2022-11-13T02:51:10;201.73;;;186.77;;
75704;SDS011;64391;44.686;37.628;2022-11-13T02:52:30;218.40;;;202.30;;
75704;SDS011;64391;44.686;37.628;2022-11-13T02:53:50;231.50;;;214.45;;
75704;SDS011;64391;44.686;37.628;2022-11-13T02:55:10;239.88;;;222.20;;
75704;SDS011;64391;44.686;37.628;2022-11-13T02:56:30;246.73;;;228.38;;
75704;SDS011;64391;44.686;37.628;2022-11-13T02:57:50;228.20;;;211.77;;
75704;SDS011;64391;44.686;37.628;2022-11-13T02:59:10;260.63;;;241.18;;
75704;SDS011;64391;44.686;37.628;2022-11-13T03:00:30;248.77;;;230.38;;
75704;SDS011;64391;44.686;37.628;2022-11-13T03:01:49;264.45;;;245.02;;
75704;SDS011;64391;44.686;37.628;2022-11-13T03:03:09;235.13;;;217.77;;
75704;SDS011;64391;44.686;37.628;2022-11-13T03:04:29;237.35;;;219.63;;
75704;SDS011;64391;44.686;37.628;2022-11-13T03:05:49;263.10;;;244.23;;
75704;SDS011;64391;44.686;37.628;2022-11-13T03:07:09;241.80;;;223.85;;
75704;SDS011;64391;44.686;37.628;2022-11-13T03:08:29;235.95;;;218.77;;
75704;SDS011;64391;44.686;37.628;2022-11-13T03:09:50;228.23;;;211.65;;
75704;SDS011;64391;44.686;37.628;2022-11-13T03:11:10;256.38;;;237.82;;
75704;SDS011;64391;44.686;37.628;2022-11-13T03:12:31;246.05;;;228.07;;
75704;SDS011;64391;44.686;37.628;2022-11-13T03:13:52;202.77;;;187.73;;
75704;SDS011;64391;44.686;37.628;2022-11-13T03:15:12;206.27;;;190.63;;
75704;SDS011;64391;44.686;37.628;2022-11-13T03:16:33;223.52;;;206.98;;
75704;SDS011;64391;44.686;37.628;2022-11-13T03:17:54;202.05;;;187.15;;
75704;SDS011;64391;44.686;37.628;2022-11-13T03:19:14;213.57;;;197.55;;
75704;SDS011;64391;44.686;37.628;2022-11-13T03:20:37;181.23;;;167.10;;
75704;SDS011;64391;44.686;37.628;2022-11-13T03:21:59;200.20;;;184.88;;
75704;SDS011;64391;44.686;37.628;2022-11-13T03:23:19;200.10;;;184.85;;
75704;SDS011;64391;44.686;37.628;2022-11-13T03:24:39;209.38;;;193.75;;
75704;SDS011;64391;44.686;37.628;2022-11-13T03:26:03;178.25;;;164.65;;
75704;SDS011;64391;44.686;37.628;2022-11-13T03:27:24;180.50;;;166.50;;
75704;SDS011;64391;44.686;37.628;2022-11-13T03:28:44;196.93;;;182.18;;
75704;SDS011;64391;44.686;37.628;2022-11-13T03:30:04;197.48;;;182.77;;
75704;SDS011;64391;44.686;37.628;2022-11-13T03:31:25;216.02;;;199.80;;
75704;SDS011;64391;44.686;37.628;2022-11-13T03:32:45;243.82;;;226.20;;
75704;SDS011;64391;44.686;37.628;2022-11-13T03:34:05;264.25;;;244.90;;
75704;SDS011;64391;44.686;37.628;2022-11-13T03:35:25;270.17;;;250.25;;
75704;SDS011;64391;44.686;37.628;2022-11-13T03:36:45;262.15;;;242.52;;
75704;SDS011;64391;44.686;37.628;2022-11-13T03:38:05;245.52;;;227.05;;
75704;SDS011;64391;44.686;37.628;2022-11-13T03:39:25;253.95;;;235.15;;
75704;SDS011;64391;44.686;37.628;2022-11-13T03:40:44;252.32;;;233.65;;
75704;SDS011;64391;44.686;37.628;2022-11-13T03:42:04;249.05;;;230.65;;
75704;SDS011;64391;44.686;37.628;2022-11-13T03:43:24;200.52;;;185.32;;
75704;SDS011;64391;44.686;37.628;2022-11-13T03:44:44;190.88;;;176.48;;
75704;SDS011;64391;44.686;37.628;2022-11-13T03:46:04;197.82;;;183.15;;
75704;SDS011;64391;44.686;37.628;2022-11-13T03:47:24;176.43;;;163.32;;
75704;SDS011;64391;44.686;37.628;2022-11-13T03:48:44;181.80;;;168.10;;
75704;SDS011;64391;44.686;37.628;2022-11-13T03:50:04;219.75;;;203.23;;
75704;SDS011;64391;44.686;37.628;2022-11-13T03:51:24;216.60;;;200.35;;
75704;SDS011;64391;44.686;37.628;2022-11-13T03:52:44;196.95;;;182.32;;
75704;SDS011;64391;44.686;37.628;2022-11-13T03:54:04;222.52;;;206.52;;
75704;SDS011;64391;44.686;37.628;2022-11-13T03:55:24;227.65;;;210.82;;
75704;SDS011;64391;44.686;37.628;2022-11-13T03:56:44;236.23;;;218.60;;
75704;SDS011;64391;44.686;37.628;2022-11-13T03:58:04;233.07;;;215.13;;
75704;SDS011;64391;44.686;37.628;2022-11-13T03:59:24;253.93;;;234.98;;
75704;SDS011;64391;44.686;37.628;2022-11-13T04:00:44;239.35;;;221.32;;
75704;SDS011;64391;44.686;37.628;2022-11-13T04:02:05;237.82;;;220.02;;
75704;SDS011;64391;44.686;37.628;2022-11-13T04:03:25;231.02;;;213.57;;
75704;SDS011;64391;44.686;37.628;2022-11-13T04:04:45;239.77;;;222.00;;
75704;SDS011;64391;44.686;37.628;2022-11-13T04:06:05;250.18;;;231.23;;
75704;SDS011;64391;44.686;37.628;2022-11-13T04:07:25;253.65;;;234.93;;
75704;SDS011;64391;44.686;37.628;2022-11-13T04:08:44;241.30;;;223.48;;
75704;SDS011;64391;44.686;37.628;2022-11-13T04:10:04;244.52;;;226.25;;
75704;SDS011;64391;44.686;37.628;2022-11-13T04:11:25;231.95;;;215.00;;
75704;SDS011;64391;44.686;37.628;2022-11-13T04:12:45;229.02;;;211.73;;
75704;SDS011;64391;44.686;37.628;2022-11-13T04:14:05;261.02;;;241.70;;
75704;SDS011;64391;44.686;37.628;2022-11-13T04:15:25;262.13;;;242.60;;
75704;SDS011;64391;44.686;37.628;2022-11-13T04:16:44;282.38;;;261.10;;
75704;SDS011;64391;44.686;37.628;2022-11-13T04:18:04;285.33;;;264.08;;
75704;SDS011;64391;44.686;37.628;2022-11-13T04:19:24;276.55;;;255.98;;
75704;SDS011;64391;44.686;37.628;2022-11-13T04:20:44;281.08;;;260.00;;
75704;SDS011;64391;44.686;37.628;2022-11-13T04:22:04;274.55;;;254.15;;
75704;SDS011;64391;44.686;37.628;2022-11-13T04:23:24;282.98;;;261.40;;
75704;SDS011;64391;44.686;37.628;2022-11-13T04:24:44;275.50;;;254.95;;
75704;SDS011;64391;44.686;37.628;2022-11-13T04:26:04;251.65;;;232.82;;
75704;SDS011;64391;44.686;37.628;2022-11-13T04:27:24;261.20;;;241.50;;
75704;SDS011;64391;44.686;37.628;2022-11-13T04:28:44;262.35;;;242.65;;
75704;SDS011;64391;44.686;37.628;2022-11-13T04:30:04;287.20;;;265.65;;
75704;SDS011;64391;44.686;37.628;2022-11-13T04:31:25;260.10;;;240.45;;
75704;SDS011;64391;44.686;37.628;2022-11-13T04:32:44;249.93;;;231.15;;
75704;SDS011;64391;44.686;37.628;2022-11-13T04:34:04;247.23;;;228.43;;
75704;SDS011;64391;44.686;37.628;2022-11-13T04:35:24;248.43;;;229.77;;
75704;SDS011;64391;44.686;37.628;2022-11-13T04:36:44;265.15;;;244.82;;
75704;SDS011;64391;44.686;37.628;2022-11-13T04:38:04;232.00;;;214.43;;
75704;SDS011;64391;44.686;37.628;2022-11-13T04:39:24;249.10;;;230.43;;
75704;SDS011;64391;44.686;37.628;2022-11-13T04:40:47;236.60;;;218.88;;
75704;SDS011;64391;44.686;37.628;2022-11-13T04:42:09;258.55;;;239.00;;
75704;SDS011;64391;44.686;37.628;2022-11-13T04:43:48;219.82;;;203.35;;
75704;SDS011;64391;44.686;37.628;2022-11-13T04:45:08;234.63;;;217.18;;
75704;SDS011;64391;44.686;37.628;2022-11-13T04:46:28;233.70;;;216.10;;
75704;SDS011;64391;44.686;37.628;2022-11-13T04:47:49;216.45;;;200.27;;
75704;SDS011;64391;44.686;37.628;2022-11-13T04:49:09;201.88;;;186.60;;
75704;SDS011;64391;44.686;37.628;2022-11-13T04:50:29;227.07;;;209.90;;
75704;SDS011;64391;44.686;37.628;2022-11-13T04:51:50;237.88;;;219.90;;
75704;SDS011;64391;44.686;37.628;2022-11-13T04:53:10;230.60;;;213.48;;
75704;SDS011;64391;44.686;37.628;2022-11-13T04:54:30;256.55;;;237.27;;
75704;SDS011;64391;44.686;37.628;2022-11-13T04:55:53;258.42;;;238.88;;
75704;SDS011;64391;44.686;37.628;2022-11-13T04:57:12;232.10;;;214.60;;
75704;SDS011;64391;44.686;37.628;2022-11-13T04:58:32;256.23;;;236.98;;
75704;SDS011;64391;44.686;37.628;2022-11-13T04:59:52;269.67;;;249.35;;
75704;SDS011;64391;44.686;37.628;2022-11-13T05:01:12;254.65;;;235.32;;
75704;SDS011;64391;44.686;37.628;2022-11-13T05:02:33;264.63;;;245.02;;
75704;SDS011;64391;44.686;37.628;2022-11-13T05:03:53;280.63;;;259.35;;
75704;SDS011;64391;44.686;37.628;2022-11-13T05:05:13;307.42;;;284.00;;
75704;SDS011;64391;44.686;37.628;2022-11-13T05:06:33;264.13;;;244.10;;
75704;SDS011;64391;44.686;37.628;2022-11-13T05:07:53;277.42;;;256.35;;
75704;SDS011;64391;44.686;37.628;2022-11-13T05:09:13;262.95;;;242.77;;
75704;SDS011;64391;44.686;37.628;2022-11-13T05:10:33;262.17;;;242.20;;
75704;SDS011;64391;44.686;37.628;2022-11-13T05:11:53;249.73;;;230.43;;
75704;SDS011;64391;44.686;37.628;2022-11-13T05:13:13;270.02;;;249.35;;
75704;SDS011;64391;44.686;37.628;2022-11-13T05:14:36;268.05;;;247.13;;
75704;SDS011;64391;44.686;37.628;2022-11-13T05:16:00;270.55;;;250.25;;
75704;SDS011;64391;44.686;37.628;2022-11-13T05:17:25;280.15;;;258.13;;
75704;SDS011;64391;44.686;37.628;2022-11-13T05:18:45;264.02;;;243.55;;
75704;SDS011;64391;44.686;37.628;2022-11-13T05:20:05;223.98;;;206.70;;
75704;SDS011;64391;44.686;37.628;2022-11-13T05:21:25;242.77;;;224.20;;
75704;SDS011;64391;44.686;37.628;2022-11-13T05:22:45;271.48;;;250.65;;
75704;SDS011;64391;44.686;37.628;2022-11-13T05:24:08;256.38;;;236.82;;
75704;SDS011;64391;44.686;37.628;2022-11-13T05:25:29;264.42;;;244.18;;
75704;SDS011;64391;44.686;37.628;2022-11-13T05:26:49;256.23;;;236.60;;
75704;SDS011;64391;44.686;37.628;2022-11-13T05:28:09;279.08;;;257.85;;
75704;SDS011;64391;44.686;37.628;2022-11-13T05:29:29;280.50;;;258.80;;
75704;SDS011;64391;44.686;37.628;2022-11-13T05:30:49;297.88;;;275.13;;
75704;SDS011;64391;44.686;37.628;2022-11-13T05:32:09;308.08;;;284.95;;
75704;SDS011;64391;44.686;37.628;2022-11-13T05:33:29;287.92;;;266.50;;
75704;SDS011;64391;44.686;37.628;2022-11-13T05:34:49;310.00;;;286.38;;
75704;SDS011;64391;44.686;37.628;2022-11-13T05:36:11;303.05;;;280.15;;
75704;SDS011;64391;44.686;37.628;2022-11-13T05:37:33;293.38;;;271.48;;
75704;SDS011;64391;44.686;37.628;2022-11-13T05:38:53;294.83;;;272.80;;
75704;SDS011;64391;44.686;37.628;2022-11-13T05:40:12;293.02;;;270.70;;
75704;SDS011;64391;44.686;37.628;2022-11-13T05:41:32;285.90;;;264.50;;
75704;SDS011;64391;44.686;37.628;2022-11-13T05:42:52;269.45;;;248.85;;
75704;SDS011;64391;44.686;37.628;2022-11-13T05:44:12;272.08;;;251.38;;
75704;SDS011;64391;44.686;37.628;2022-11-13T05:45:32;262.95;;;242.95;;
75704;SDS011;64391;44.686;37.628;2022-11-13T05:46:52;271.30;;;250.98;;
75704;SDS011;64391;44.686;37.628;2022-11-13T05:48:12;256.38;;;236.70;;
75704;SDS011;64391;44.686;37.628;2022-11-13T05:49:32;282.40;;;260.63;;
75704;SDS011;64391;44.686;37.628;2022-11-13T05:50:52;273.77;;;253.07;;
75704;SDS011;64391;44.686;37.628;2022-11-13T05:52:11;275.05;;;254.77;;
75704;SDS011;64391;44.686;37.628;2022-11-13T05:53:32;273.45;;;252.82;;
75704;SDS011;64391;44.686;37.628;2022-11-13T05:54:52;250.40;;;231.45;;
75704;SDS011;64391;44.686;37.628;2022-11-13T05:56:13;247.55;;;228.82;;
75704;SDS011;64391;44.686;37.628;2022-11-13T05:57:36;249.32;;;230.80;;
75704;SDS011;64391;44.686;37.628;2022-11-13T05:58:56;249.85;;;231.43;;
75704;SDS011;64391;44.686;37.628;2022-11-13T06:00:17;209.52;;;193.73;;
75704;SDS011;64391;44.686;37.628;2022-11-13T06:01:38;215.90;;;199.43;;
75704;SDS011;64391;44.686;37.628;2022-11-13T06:02:58;211.38;;;195.73;;
75704;SDS011;64391;44.686;37.628;2022-11-13T06:04:19;241.55;;;223.80;;
75704;SDS011;64391;44.686;37.628;2022-11-13T06:05:39;247.70;;;229.13;;
75704;SDS011;64391;44.686;37.628;2022-11-13T06:06:59;224.30;;;207.82;;
75704;SDS011;64391;44.686;37.628;2022-11-13T06:08:19;202.15;;;186.70;;
75704;SDS011;64391;44.686;37.628;2022-11-13T06:09:39;178.57;;;164.68;;
75704;SDS011;64391;44.686;37.628;2022-11-13T06:11:03;191.90;;;177.35;;
75704;SDS011;64391;44.686;37.628;2022-11-13T06:12:24;205.73;;;190.45;;
75704;SDS011;64391;44.686;37.628;2022-11-13T06:13:44;196.75;;;182.38;;
75704;SDS011;64391;44.686;37.628;2022-11-13T06:15:05;202.10;;;187.15;;
75704;SDS011;64391;44.686;37.628;2022-11-13T06:16:26;224.35;;;207.63;;
75704;SDS011;64391;44.686;37.628;2022-11-13T06:17:47;196.77;;;182.23;;
75704;SDS011;64391;44.686;37.628;2022-11-13T06:19:08;179.70;;;165.75;;
75704;SDS011;64391;44.686;37.628;2022-11-13T06:20:29;195.38;;;180.38;;
75704;SDS011;64391;44.686;37.628;2022-11-13T06:21:49;181.45;;;167.70;;
75704;SDS011;64391;44.686;37.628;2022-11-13T06:23:09;222.52;;;206.20;;
75704;SDS011;64391;44.686;37.628;2022-11-13T06:24:29;164.30;;;151.95;;
75704;SDS011;64391;44.686;37.628;2022-11-13T06:25:49;167.35;;;154.15;;
75704;SDS011;64391;44.686;37.628;2022-11-13T06:27:09;176.85;;;163.43;;
75704;SDS011;64391;44.686;37.628;2022-11-13T06:28:28;189.73;;;175.90;;
75704;SDS011;64391;44.686;37.628;2022-11-13T06:29:49;163.52;;;150.70;;
75704;SDS011;64391;44.686;37.628;2022-11-13T06:31:10;160.65;;;148.40;;
75704;SDS011;64391;44.686;37.628;2022-11-13T06:32:32;169.63;;;156.77;;
75704;SDS011;64391;44.686;37.628;2022-11-13T06:33:52;130.75;;;120.78;;
75704;SDS011;64391;44.686;37.628;2022-11-13T06:35:12;131.75;;;121.72;;
75704;SDS011;64391;44.686;37.628;2022-11-13T06:36:33;127.03;;;116.72;;
75704;SDS011;64391;44.686;37.628;2022-11-13T06:37:54;133.48;;;123.88;;
75704;SDS011;64391;44.686;37.628;2022-11-13T06:39:14;95.07;;;88.22;;
75704;SDS011;64391;44.686;37.628;2022-11-13T06:40:36;95.25;;;87.88;;
75704;SDS011;64391;44.686;37.628;2022-11-13T06:43:16;84.40;;;78.45;;
75704;SDS011;64391;44.686;37.628;2022-11-13T06:44:36;148.55;;;137.93;;
75704;SDS011;64391;44.686;37.628;2022-11-13T06:45:56;104.90;;;97.30;;
75704;SDS011;64391;44.686;37.628;2022-11-13T06:47:17;113.55;;;105.65;;
75704;SDS011;64391;44.686;37.628;2022-11-13T06:48:37;79.47;;;73.43;;
75704;SDS011;64391;44.686;37.628;2022-11-13T06:49:57;121.10;;;112.38;;
75704;SDS011;64391;44.686;37.628;2022-11-13T06:51:17;101.43;;;93.80;;
75704;SDS011;64391;44.686;37.628;2022-11-13T06:52:43;48.60;;;43.70;;
75704;SDS011;64391;44.686;37.628;2022-11-13T06:54:03;31.77;;;29.35;;
75704;SDS011;64391;44.686;37.628;2022-11-13T06:55:23;55.22;;;51.05;;
75704;SDS011;64391;44.686;37.628;2022-11-13T06:56:42;49.70;;;45.97;;
75704;SDS011;64391;44.686;37.628;2022-11-13T06:58:03;52.22;;;48.40;;
75704;SDS011;64391;44.686;37.628;2022-11-13T06:59:23;91.07;;;84.60;;
75704;SDS011;64391;44.686;37.628;2022-11-13T07:00:43;71.25;;;66.18;;
75704;SDS011;64391;44.686;37.628;2022-11-13T07:02:04;38.60;;;35.75;;
75704;SDS011;64391;44.686;37.628;2022-11-13T07:03:25;41.90;;;38.70;;
75704;SDS011;64391;44.686;37.628;2022-11-13T07:04:45;31.05;;;28.60;;
75704;SDS011;64391;44.686;37.628;2022-11-13T07:06:06;36.05;;;33.10;;
75704;SDS011;64391;44.686;37.628;2022-11-13T07:07:32;31.85;;;29.50;;
75704;SDS011;64391;44.686;37.628;2022-11-13T07:08:52;51.92;;;48.03;;
75704;SDS011;64391;44.686;37.628;2022-11-13T07:10:12;83.90;;;77.75;;
75704;SDS011;64391;44.686;37.628;2022-11-13T07:11:31;24.95;;;22.90;;
75704;SDS011;64391;44.686;37.628;2022-11-13T07:12:51;53.90;;;46.60;;
75704;SDS011;64391;44.686;37.628;2022-11-13T07:14:11;35.10;;;32.42;;
75704;SDS011;64391;44.686;37.628;2022-11-13T07:15:37;16.85;;;15.48;;
75704;SDS011;64391;44.686;37.628;2022-11-13T07:16:58;25.60;;;23.50;;
75704;SDS011;64391;44.686;37.628;2022-11-13T07:18:18;38.22;;;35.33;;
75704;SDS011;64391;44.686;37.628;2022-11-13T07:19:38;15.68;;;14.30;;
75704;SDS011;64391;44.686;37.628;2022-11-13T07:21:02;101.60;;;94.43;;
75704;SDS011;64391;44.686;37.628;2022-11-13T07:22:28;86.82;;;80.47;;
75704;SDS011;64391;44.686;37.628;2022-11-13T07:23:49;78.07;;;72.32;;
75704;SDS011;64391;44.686;37.628;2022-11-13T07:25:09;83.85;;;77.68;;
75704;SDS011;64391;44.686;37.628;2022-11-13T07:26:29;146.40;;;136.20;;
75704;SDS011;64391;44.686;37.628;2022-11-13T07:27:48;84.32;;;78.30;;
75704;SDS011;64391;44.686;37.628;2022-11-13T07:29:10;114.75;;;106.50;;
75704;SDS011;64391;44.686;37.628;2022-11-13T07:30:30;39.75;;;36.90;;
75704;SDS011;64391;44.686;37.628;2022-11-13T07:31:50;69.20;;;64.28;;
75704;SDS011;64391;44.686;37.628;2022-11-13T07:33:10;56.55;;;52.47;;
75704;SDS011;64391;44.686;37.628;2022-11-13T07:34:30;45.08;;;41.78;;
75704;SDS011;64391;44.686;37.628;2022-11-13T07:35:51;41.17;;;38.33;;
75704;SDS011;64391;44.686;37.628;2022-11-13T07:37:13;60.53;;;55.97;;
75704;SDS011;64391;44.686;37.628;2022-11-13T07:38:33;145.82;;;135.70;;
75704;SDS011;64391;44.686;37.628;2022-11-13T07:39:53;82.88;;;76.97;;
75704;SDS011;64391;44.686;37.628;2022-11-13T07:41:13;80.20;;;74.18;;
75704;SDS011;64391;44.686;37.628;2022-11-13T07:42:32;121.05;;;112.40;;
75704;SDS011;64391;44.686;37.628;2022-11-13T07:43:53;153.57;;;142.68;;
75704;SDS011;64391;44.686;37.628;2022-11-13T07:45:13;120.82;;;112.10;;